PWSweather.com
Personal Weather Stations
Station Observations
KIDJEROME
Sse Jerome Butte , Jerome, ID 83338

Sse Jerome Butte Jerome, ID 83338

Lat: 42.6981891, Lon: -114.4041362

Elevation: 3960

Station Type: Davis Vantage Pro 2

High Low Average
Temperature 38.7°F3.7°C 30.2°F-1.0°C 34.4°F1.3°C
Dew Point 32.6°F0.3°C 26.8°F-2.9°C 29.9°F-1.2°C
Winds 16.0 mph 25.7 kmh Calm Calm 8.0 mph SW12.9 kmh SW
Wind Gusts 23.0 mph37.0 kmh -- 12.0 mph19.3 kmh
Humidity 95% 71% 84%
Pressure 30.40 in1029.5 mb 29.97 in1014.9 mb -
Precipitation 0.00 in0.0 mm - -
Hour Temp Dew Point Humidity Winds Wind Gusts Pressure Precip Precip Rate Daily Precip Total
12:00 AM 33.5°F0.8°C 32.0°F0.0°C 94% 13.0 mph W20.9 kmh W 17.0 mph27.4 kmh 29.96 in1014.6 mb 0.00 in0.0 mm 0.00 in0.0 mm 0.25 in6.4 mm
12:15 AM 33.6°F0.9°C 32.1°F0.1°C 94% 10.0 mph W16.1 kmh W 14.0 mph22.5 kmh 29.96 in1014.6 mb 0.02 in0.5 mm 0.08 in2.0 mm 0.27 in6.9 mm
12:30 AM 33.7°F0.9°C 32.2°F0.1°C 94% 9.0 mph WNW14.5 kmh WNW 13.0 mph20.9 kmh 29.96 in1014.6 mb 0.02 in0.5 mm 0.00 in0.0 mm 0.27 in6.9 mm
12:45 AM 34.2°F1.2°C 32.7°F0.4°C 94% 7.0 mph W11.3 kmh W 12.0 mph19.3 kmh 29.96 in1014.6 mb 0.03 in0.8 mm 0.04 in1.0 mm 0.28 in7.1 mm
01:00 AM 34.1°F1.2°C 32.6°F0.3°C 94% 5.0 mph WSW8.0 kmh WSW 7.0 mph11.3 kmh 29.97 in1014.9 mb 0.03 in0.8 mm 0.00 in0.0 mm 0.03 in0.8 mm
01:15 AM 33.5°F0.8°C 32.0°F0.0°C 94% 5.0 mph WSW8.0 kmh WSW 7.0 mph11.3 kmh 29.99 in1015.6 mb 0.01 in0.3 mm 0.00 in0.0 mm 0.03 in0.8 mm
01:30 AM 33.3°F0.7°C 32.0°F0.0°C 95% 4.0 mph WSW6.4 kmh WSW 4.0 mph6.4 kmh 29.99 in1015.6 mb 0.01 in0.3 mm 0.00 in0.0 mm 0.03 in0.8 mm
01:45 AM 33.3°F0.7°C 32.0°F0.0°C 95% 3.0 mph WSW4.8 kmh WSW 6.0 mph9.7 kmh 29.99 in1015.6 mb 0.00 in0.0 mm 0.00 in0.0 mm 0.03 in0.8 mm
02:00 AM 33.8°F1.0°C 32.5°F0.3°C 95% 6.0 mph WSW9.7 kmh WSW 10.0 mph16.1 kmh 29.99 in1015.6 mb 0.00 in0.0 mm 0.00 in0.0 mm 0.03 in0.8 mm
02:15 AM 34.0°F1.1°C 31.6°F-0.2°C 91% 8.0 mph WSW12.9 kmh WSW 19.0 mph30.6 kmh 30.00 in1015.9 mb 0.00 in0.0 mm 0.00 in0.0 mm 0.03 in0.8 mm
02:30 AM 33.6°F0.9°C 31.0°F-0.6°C 90% 12.0 mph WSW19.3 kmh WSW 17.0 mph27.4 kmh 30.00 in1015.9 mb 0.00 in0.0 mm 0.00 in0.0 mm 0.03 in0.8 mm
02:45 AM 33.6°F0.9°C 31.3°F-0.4°C 91% 13.0 mph WSW20.9 kmh WSW 17.0 mph27.4 kmh 30.01 in1016.3 mb 0.00 in0.0 mm 0.00 in0.0 mm 0.03 in0.8 mm
03:00 AM 33.4°F0.8°C 31.3°F-0.4°C 92% 11.0 mph WSW17.7 kmh WSW 15.0 mph24.1 kmh 30.03 in1016.9 mb 0.00 in0.0 mm 0.00 in0.0 mm 0.03 in0.8 mm
03:15 AM 33.2°F0.7°C 31.4°F-0.3°C 93% 10.0 mph WSW16.1 kmh WSW 15.0 mph24.1 kmh 30.03 in1016.9 mb 0.00 in0.0 mm 0.00 in0.0 mm 0.03 in0.8 mm
03:30 AM 33.3°F0.7°C 31.5°F-0.3°C 93% 10.0 mph WSW16.1 kmh WSW 14.0 mph22.5 kmh 30.04 in1017.3 mb 0.00 in0.0 mm 0.00 in0.0 mm 0.03 in0.8 mm
03:45 AM 33.3°F0.7°C 31.5°F-0.3°C 93% 10.0 mph WSW16.1 kmh WSW 15.0 mph24.1 kmh 30.05 in1017.6 mb 0.00 in0.0 mm 0.00 in0.0 mm 0.03 in0.8 mm
04:00 AM 33.4°F0.8°C 31.3°F-0.4°C 92% 11.0 mph WSW17.7 kmh WSW 16.0 mph25.7 kmh 30.05 in1017.6 mb 0.00 in0.0 mm 0.00 in0.0 mm 0.03 in0.8 mm
04:15 AM 33.4°F0.8°C 31.3°F-0.4°C 92% 11.0 mph WSW17.7 kmh WSW 17.0 mph27.4 kmh 30.07 in1018.3 mb 0.00 in0.0 mm 0.00 in0.0 mm 0.03 in0.8 mm
04:30 AM 33.4°F0.8°C 31.3°F-0.4°C 92% 12.0 mph WSW19.3 kmh WSW 16.0 mph25.7 kmh 30.07 in1018.3 mb 0.00 in0.0 mm 0.00 in0.0 mm 0.03 in0.8 mm
04:45 AM 33.6°F0.9°C 31.5°F-0.3°C 92% 11.0 mph WSW17.7 kmh WSW 16.0 mph25.7 kmh 30.07 in1018.3 mb 0.00 in0.0 mm 0.00 in0.0 mm 0.03 in0.8 mm
05:00 AM 33.8°F1.0°C 31.5°F-0.3°C 91% 12.0 mph WSW19.3 kmh WSW 16.0 mph25.7 kmh 30.07 in1018.3 mb 0.00 in0.0 mm 0.00 in0.0 mm 0.03 in0.8 mm
05:15 AM 33.8°F1.0°C 31.2°F-0.4°C 90% 10.0 mph WSW16.1 kmh WSW 15.0 mph24.1 kmh 30.08 in1018.6 mb 0.00 in0.0 mm 0.00 in0.0 mm 0.03 in0.8 mm
05:30 AM 33.9°F1.1°C 31.0°F-0.6°C 89% 10.0 mph WSW16.1 kmh WSW 16.0 mph25.7 kmh 30.08 in1018.6 mb 0.00 in0.0 mm 0.00 in0.0 mm 0.03 in0.8 mm
05:45 AM 33.9°F1.1°C 31.0°F-0.6°C 89% 11.0 mph WSW17.7 kmh WSW 14.0 mph22.5 kmh 30.09 in1019.0 mb 0.00 in0.0 mm 0.00 in0.0 mm 0.03 in0.8 mm
06:00 AM 33.9°F1.1°C 31.0°F-0.6°C 89% 11.0 mph WSW17.7 kmh WSW 16.0 mph25.7 kmh 30.10 in1019.3 mb 0.00 in0.0 mm 0.00 in0.0 mm 0.03 in0.8 mm
06:15 AM 33.8°F1.0°C 30.9°F-0.6°C 89% 9.0 mph WSW14.5 kmh WSW 15.0 mph24.1 kmh 30.14 in1020.7 mb 0.00 in0.0 mm 0.00 in0.0 mm 0.03 in0.8 mm
06:30 AM 33.6°F0.9°C 30.7°F-0.7°C 89% 11.0 mph WSW17.7 kmh WSW 17.0 mph27.4 kmh 30.14 in1020.7 mb 0.00 in0.0 mm 0.00 in0.0 mm 0.03 in0.8 mm
06:45 AM 33.6°F0.9°C 30.4°F-0.9°C 88% 13.0 mph WSW20.9 kmh WSW 19.0 mph30.6 kmh 30.14 in1020.7 mb 0.00 in0.0 mm 0.00 in0.0 mm 0.03 in0.8 mm
07:00 AM 33.7°F0.9°C 30.5°F-0.8°C 88% 13.0 mph WSW20.9 kmh WSW 18.0 mph29.0 kmh 30.15 in1021.0 mb 0.00 in0.0 mm 0.00 in0.0 mm 0.03 in0.8 mm
07:15 AM 33.4°F0.8°C 30.5°F-0.8°C 89% 11.0 mph WSW17.7 kmh WSW 15.0 mph24.1 kmh 30.16 in1021.3 mb 0.00 in0.0 mm 0.00 in0.0 mm 0.03 in0.8 mm
07:30 AM 33.3°F0.7°C 30.7°F-0.7°C 90% 12.0 mph WSW19.3 kmh WSW 17.0 mph27.4 kmh 30.17 in1021.7 mb 0.00 in0.0 mm 0.00 in0.0 mm 0.03 in0.8 mm
07:45 AM 33.3°F0.7°C 30.7°F-0.7°C 90% 11.0 mph WSW17.7 kmh WSW 16.0 mph25.7 kmh 30.18 in1022.0 mb 0.00 in0.0 mm 0.00 in0.0 mm 0.03 in0.8 mm
08:00 AM 33.0°F0.6°C 30.4°F-0.9°C 90% 10.0 mph WSW16.1 kmh WSW 13.0 mph20.9 kmh 30.18 in1022.0 mb 0.00 in0.0 mm 0.00 in0.0 mm 0.03 in0.8 mm
08:15 AM 33.1°F0.6°C 30.5°F-0.8°C 90% 9.0 mph WSW14.5 kmh WSW 13.0 mph20.9 kmh 30.19 in1022.4 mb 0.00 in0.0 mm 0.00 in0.0 mm 0.03 in0.8 mm
08:30 AM 32.9°F0.5°C 30.0°F-1.1°C 89% 10.0 mph WSW16.1 kmh WSW 13.0 mph20.9 kmh 30.20 in1022.7 mb 0.00 in0.0 mm 0.00 in0.0 mm 0.03 in0.8 mm
08:45 AM 33.2°F0.7°C 30.0°F-1.1°C 88% 10.0 mph WSW16.1 kmh WSW 15.0 mph24.1 kmh 30.21 in1023.0 mb 0.00 in0.0 mm 0.00 in0.0 mm 0.03 in0.8 mm
09:00 AM 33.6°F0.9°C 29.9°F-1.2°C 86% 12.0 mph WSW19.3 kmh WSW 16.0 mph25.7 kmh 30.21 in1023.0 mb 0.00 in0.0 mm 0.00 in0.0 mm 0.03 in0.8 mm
09:15 AM 33.6°F0.9°C 29.6°F-1.3°C 85% 11.0 mph WSW17.7 kmh WSW 14.0 mph22.5 kmh 30.22 in1023.4 mb 0.00 in0.0 mm 0.00 in0.0 mm 0.03 in0.8 mm
09:30 AM 33.8°F1.0°C 29.5°F-1.4°C 84% 11.0 mph WSW17.7 kmh WSW 18.0 mph29.0 kmh 30.22 in1023.4 mb 0.00 in0.0 mm 0.00 in0.0 mm 0.03 in0.8 mm
09:45 AM 33.9°F1.1°C 29.6°F-1.3°C 84% 13.0 mph WSW20.9 kmh WSW 21.0 mph33.8 kmh 30.23 in1023.7 mb 0.00 in0.0 mm 0.00 in0.0 mm 0.03 in0.8 mm
10:00 AM 34.5°F1.4°C 29.6°F-1.3°C 82% 13.0 mph WSW20.9 kmh WSW 19.0 mph30.6 kmh 30.24 in1024.0 mb 0.00 in0.0 mm 0.00 in0.0 mm 0.03 in0.8 mm
10:15 AM 34.7°F1.5°C 29.8°F-1.2°C 82% 13.0 mph WSW20.9 kmh WSW 20.0 mph32.2 kmh 30.25 in1024.4 mb 0.00 in0.0 mm 0.00 in0.0 mm 0.03 in0.8 mm
10:30 AM 34.5°F1.4°C 29.3°F-1.5°C 81% 13.0 mph WSW20.9 kmh WSW 19.0 mph30.6 kmh 30.26 in1024.7 mb 0.00 in0.0 mm 0.00 in0.0 mm 0.03 in0.8 mm
10:45 AM 34.8°F1.6°C 29.6°F-1.3°C 81% 13.0 mph WSW20.9 kmh WSW 20.0 mph32.2 kmh 30.27 in1025.1 mb 0.00 in0.0 mm 0.00 in0.0 mm 0.03 in0.8 mm
11:00 AM 35.3°F1.8°C 29.4°F-1.4°C 79% 14.0 mph WSW22.5 kmh WSW 19.0 mph30.6 kmh 30.28 in1025.4 mb 0.00 in0.0 mm 0.00 in0.0 mm 0.03 in0.8 mm
11:15 AM 35.4°F1.9°C 29.8°F-1.2°C 80% 14.0 mph WSW22.5 kmh WSW 18.0 mph29.0 kmh 30.30 in1026.1 mb 0.00 in0.0 mm 0.00 in0.0 mm 0.03 in0.8 mm
11:30 AM 35.8°F2.1°C 29.9°F-1.2°C 79% 15.0 mph WSW24.1 kmh WSW 20.0 mph32.2 kmh 30.28 in1025.4 mb 0.00 in0.0 mm 0.00 in0.0 mm 0.03 in0.8 mm
11:45 AM 35.7°F2.1°C 29.5°F-1.4°C 78% 15.0 mph WSW24.1 kmh WSW 19.0 mph30.6 kmh 30.30 in1026.1 mb 0.00 in0.0 mm 0.00 in0.0 mm 0.03 in0.8 mm
12:00 PM 35.9°F2.2°C 29.7°F-1.3°C 78% 13.0 mph WSW20.9 kmh WSW 20.0 mph32.2 kmh 30.31 in1026.4 mb 0.00 in0.0 mm 0.00 in0.0 mm 0.03 in0.8 mm
12:15 PM 36.1°F2.3°C 29.9°F-1.2°C 78% 16.0 mph WSW25.7 kmh WSW 23.0 mph37.0 kmh 30.30 in1026.1 mb 0.00 in0.0 mm 0.00 in0.0 mm 0.03 in0.8 mm
12:30 PM 36.3°F2.4°C 30.1°F-1.1°C 78% 16.0 mph WSW25.7 kmh WSW 21.0 mph33.8 kmh 30.31 in1026.4 mb 0.00 in0.0 mm 0.00 in0.0 mm 0.03 in0.8 mm
12:45 PM 36.6°F2.6°C 29.7°F-1.3°C 76% 15.0 mph WSW24.1 kmh WSW 21.0 mph33.8 kmh 30.31 in1026.4 mb 0.00 in0.0 mm 0.00 in0.0 mm 0.03 in0.8 mm
01:00 PM 37.1°F2.8°C 30.2°F-1.0°C 76% 15.0 mph WSW24.1 kmh WSW 21.0 mph33.8 kmh 30.31 in1026.4 mb 0.00 in0.0 mm 0.00 in0.0 mm 0.03 in0.8 mm
01:15 PM 37.5°F3.1°C 30.6°F-0.8°C 76% 15.0 mph WSW24.1 kmh WSW 20.0 mph32.2 kmh 30.31 in1026.4 mb 0.00 in0.0 mm 0.00 in0.0 mm 0.03 in0.8 mm
01:30 PM 37.7°F3.2°C 30.5°F-0.8°C 75% 13.0 mph WSW20.9 kmh WSW 18.0 mph29.0 kmh 30.31 in1026.4 mb 0.00 in0.0 mm 0.00 in0.0 mm 0.03 in0.8 mm
01:45 PM 37.9°F3.3°C 30.4°F-0.9°C 74% 13.0 mph WSW20.9 kmh WSW 19.0 mph30.6 kmh 30.31 in1026.4 mb 0.00 in0.0 mm 0.00 in0.0 mm 0.03 in0.8 mm
02:00 PM 37.9°F3.3°C 30.4°F-0.9°C 74% 14.0 mph WSW22.5 kmh WSW 21.0 mph33.8 kmh 30.31 in1026.4 mb 0.00 in0.0 mm 0.00 in0.0 mm 0.03 in0.8 mm
02:15 PM 38.1°F3.4°C 29.9°F-1.2°C 72% 14.0 mph WSW22.5 kmh WSW 21.0 mph33.8 kmh 30.33 in1027.1 mb 0.00 in0.0 mm 0.00 in0.0 mm 0.03 in0.8 mm
02:30 PM 38.4°F3.6°C 30.5°F-0.8°C 73% 14.0 mph WSW22.5 kmh WSW 21.0 mph33.8 kmh 30.33 in1027.1 mb 0.00 in0.0 mm 0.00 in0.0 mm 0.03 in0.8 mm
02:45 PM 38.4°F3.6°C 30.8°F-0.7°C 74% 14.0 mph WSW22.5 kmh WSW 20.0 mph32.2 kmh 30.33 in1027.1 mb 0.00 in0.0 mm 0.00 in0.0 mm 0.03 in0.8 mm
03:00 PM 38.5°F3.6°C 30.3°F-0.9°C 72% 13.0 mph WSW20.9 kmh WSW 19.0 mph30.6 kmh 30.32 in1026.8 mb 0.00 in0.0 mm 0.00 in0.0 mm 0.03 in0.8 mm
03:15 PM 38.7°F3.7°C 30.1°F-1.1°C 71% 12.0 mph WSW19.3 kmh WSW 17.0 mph27.4 kmh 30.32 in1026.8 mb 0.00 in0.0 mm 0.00 in0.0 mm 0.03 in0.8 mm
03:30 PM 38.6°F3.7°C 30.0°F-1.1°C 71% 13.0 mph WSW20.9 kmh WSW 17.0 mph27.4 kmh 30.32 in1026.8 mb 0.00 in0.0 mm 0.00 in0.0 mm 0.03 in0.8 mm
03:45 PM 38.4°F3.6°C 30.2°F-1.0°C 72% 10.0 mph WSW16.1 kmh WSW 13.0 mph20.9 kmh 30.33 in1027.1 mb 0.00 in0.0 mm 0.00 in0.0 mm 0.03 in0.8 mm
04:00 PM 38.3°F3.5°C 30.7°F-0.7°C 74% 10.0 mph W16.1 kmh W 13.0 mph20.9 kmh 30.33 in1027.1 mb 0.00 in0.0 mm 0.00 in0.0 mm 0.03 in0.8 mm
04:15 PM 38.1°F3.4°C 30.2°F-1.0°C 73% 10.0 mph WSW16.1 kmh WSW 14.0 mph22.5 kmh 30.33 in1027.1 mb 0.00 in0.0 mm 0.00 in0.0 mm 0.03 in0.8 mm
04:30 PM 38.1°F3.4°C 30.5°F-0.8°C 74% 9.0 mph W14.5 kmh W 13.0 mph20.9 kmh 30.33 in1027.1 mb 0.00 in0.0 mm 0.00 in0.0 mm 0.03 in0.8 mm
04:45 PM 38.2°F3.4°C 31.0°F-0.6°C 75% 7.0 mph W11.3 kmh W 10.0 mph16.1 kmh 30.34 in1027.4 mb 0.00 in0.0 mm 0.00 in0.0 mm 0.03 in0.8 mm
05:00 PM 38.0°F3.3°C 30.8°F-0.7°C 75% 6.0 mph W9.7 kmh W 11.0 mph17.7 kmh 30.34 in1027.4 mb 0.00 in0.0 mm 0.00 in0.0 mm 0.03 in0.8 mm
05:15 PM 37.9°F3.3°C 31.0°F-0.6°C 76% 6.0 mph W9.7 kmh W 9.0 mph14.5 kmh 30.34 in1027.4 mb 0.00 in0.0 mm 0.00 in0.0 mm 0.03 in0.8 mm
05:30 PM 37.6°F3.1°C 31.0°F-0.6°C 77% 5.0 mph W8.0 kmh W 8.0 mph12.9 kmh 30.34 in1027.4 mb 0.00 in0.0 mm 0.00 in0.0 mm 0.03 in0.8 mm
05:45 PM 36.8°F2.7°C 30.6°F-0.8°C 78% 4.0 mph W6.4 kmh W 5.0 mph8.0 kmh 30.35 in1027.8 mb 0.00 in0.0 mm 0.00 in0.0 mm 0.03 in0.8 mm
06:00 PM 35.7°F2.1°C 29.8°F-1.2°C 79% 3.0 mph WNW4.8 kmh WNW 4.0 mph6.4 kmh 30.34 in1027.4 mb 0.00 in0.0 mm 0.00 in0.0 mm 0.03 in0.8 mm
06:15 PM 35.1°F1.7°C 29.6°F-1.3°C 80% 3.0 mph W4.8 kmh W 4.0 mph6.4 kmh 30.35 in1027.8 mb 0.00 in0.0 mm 0.00 in0.0 mm 0.03 in0.8 mm
06:30 PM 34.4°F1.3°C 29.2°F-1.6°C 81% 3.0 mph W4.8 kmh W 4.0 mph6.4 kmh 30.36 in1028.1 mb 0.00 in0.0 mm 0.00 in0.0 mm 0.03 in0.8 mm
06:45 PM 33.8°F1.0°C 28.6°F-1.9°C 81% 3.0 mph W4.8 kmh W 4.0 mph6.4 kmh 30.36 in1028.1 mb 0.00 in0.0 mm 0.00 in0.0 mm 0.03 in0.8 mm
07:00 PM 33.6°F0.9°C 28.4°F-2.0°C 81% 3.0 mph WNW4.8 kmh WNW 4.0 mph6.4 kmh 30.36 in1028.1 mb 0.00 in0.0 mm 0.00 in0.0 mm 0.03 in0.8 mm
07:15 PM 33.2°F0.7°C 28.3°F-2.1°C 82% 1.0 mph WNW1.6 kmh WNW 2.0 mph3.2 kmh 30.37 in1028.4 mb 0.00 in0.0 mm 0.00 in0.0 mm 0.03 in0.8 mm
07:30 PM 33.0°F0.6°C 28.4°F-2.0°C 83% 1.0 mph NW1.6 kmh NW 1.0 mph1.6 kmh 30.38 in1028.8 mb 0.00 in0.0 mm 0.00 in0.0 mm 0.03 in0.8 mm
07:45 PM 32.8°F0.4°C 28.5°F-1.9°C 84% Calm Calm 1.0 mph1.6 kmh 30.38 in1028.8 mb 0.00 in0.0 mm 0.00 in0.0 mm 0.03 in0.8 mm
08:00 PM 33.5°F0.8°C 28.3°F-2.1°C 81% 1.0 mph NW1.6 kmh NW 2.0 mph3.2 kmh 30.38 in1028.8 mb 0.00 in0.0 mm 0.00 in0.0 mm 0.03 in0.8 mm
08:15 PM 32.6°F0.3°C 28.0°F-2.2°C 83% 2.0 mph NW3.2 kmh NW 2.0 mph3.2 kmh 30.39 in1029.1 mb 0.00 in0.0 mm 0.00 in0.0 mm 0.03 in0.8 mm
08:30 PM 33.7°F0.9°C 28.5°F-1.9°C 81% 1.0 mph NW1.6 kmh NW 3.0 mph4.8 kmh 30.38 in1028.8 mb 0.00 in0.0 mm 0.00 in0.0 mm 0.03 in0.8 mm
08:45 PM 33.9°F1.1°C 28.7°F-1.8°C 81% 2.0 mph NW3.2 kmh NW 3.0 mph4.8 kmh 30.39 in1029.1 mb 0.00 in0.0 mm 0.00 in0.0 mm 0.03 in0.8 mm
09:00 PM 33.1°F0.6°C 28.8°F-1.8°C 84% 1.0 mph SE1.6 kmh SE 4.0 mph6.4 kmh 30.39 in1029.1 mb 0.00 in0.0 mm 0.00 in0.0 mm 0.03 in0.8 mm
09:15 PM 31.4°F-0.3°C 27.1°F-2.7°C 84% Calm Calm -- 30.39 in1029.1 mb 0.00 in0.0 mm 0.00 in0.0 mm 0.03 in0.8 mm
09:30 PM 31.3°F-0.4°C 27.9°F-2.3°C 87% Calm Calm -- 30.40 in1029.5 mb 0.00 in0.0 mm 0.00 in0.0 mm 0.03 in0.8 mm
09:45 PM 31.1°F-0.5°C 27.4°F-2.6°C 86% Calm Calm -- 30.40 in1029.5 mb 0.00 in0.0 mm 0.00 in0.0 mm 0.03 in0.8 mm
10:00 PM 31.3°F-0.4°C 27.6°F-2.4°C 86% 1.0 mph NE1.6 kmh NE 2.0 mph3.2 kmh 30.39 in1029.1 mb 0.00 in0.0 mm 0.00 in0.0 mm 0.03 in0.8 mm
10:15 PM 31.2°F-0.4°C 27.8°F-2.3°C 87% 1.0 mph NE1.6 kmh NE 2.0 mph3.2 kmh 30.40 in1029.5 mb 0.00 in0.0 mm 0.00 in0.0 mm 0.03 in0.8 mm
10:30 PM 30.8°F-0.7°C 27.4°F-2.6°C 87% 1.0 mph ENE1.6 kmh ENE 1.0 mph1.6 kmh 30.40 in1029.5 mb 0.00 in0.0 mm 0.00 in0.0 mm 0.03 in0.8 mm
10:45 PM 30.7°F-0.7°C 27.6°F-2.4°C 88% 1.0 mph NE1.6 kmh NE 2.0 mph3.2 kmh 30.40 in1029.5 mb 0.00 in0.0 mm 0.00 in0.0 mm 0.03 in0.8 mm
11:00 PM 31.2°F-0.4°C 27.8°F-2.3°C 87% 1.0 mph ENE1.6 kmh ENE 1.0 mph1.6 kmh 30.40 in1029.5 mb 0.00 in0.0 mm 0.00 in0.0 mm 0.03 in0.8 mm
11:15 PM 30.2°F-1.0°C 26.8°F-2.9°C 87% 1.0 mph NE1.6 kmh NE 1.0 mph1.6 kmh 30.40 in1029.5 mb 0.00 in0.0 mm 0.00 in0.0 mm 0.03 in0.8 mm
11:30 PM 30.8°F-0.7°C 27.4°F-2.6°C 87% 1.0 mph NE1.6 kmh NE 2.0 mph3.2 kmh 30.40 in1029.5 mb 0.00 in0.0 mm 0.00 in0.0 mm 0.03 in0.8 mm
11:45 PM 31.9°F-0.1°C 28.5°F-1.9°C 87% Calm Calm 2.0 mph3.2 kmh 30.37 in1028.4 mb 0.00 in0.0 mm 0.00 in0.0 mm 0.03 in0.8 mm